sensor_id;sensor_type;location;lat;lon;timestamp;pressure;altitude;pressure_sealevel;temperature;humidity
66801;BME280;53703;50.326;19.122;2023-04-22T00:01:40;98596.82;;;18.35;37.26
66801;BME280;53703;50.326;19.122;2023-04-22T00:04:33;98597.04;;;18.34;37.16
66801;BME280;53703;50.326;19.122;2023-04-22T00:07:29;98597.07;;;18.32;37.10
66801;BME280;53703;50.326;19.122;2023-04-22T00:10:23;98595.45;;;18.27;37.07
66801;BME280;53703;50.326;19.122;2023-04-22T00:13:16;98598.48;;;18.25;37.04
66801;BME280;53703;50.326;19.122;2023-04-22T00:16:10;98598.48;;;18.26;37.23
66801;BME280;53703;50.326;19.122;2023-04-22T00:19:04;98597.94;;;18.23;37.38
66801;BME280;53703;50.326;19.122;2023-04-22T00:21:58;98596.67;;;18.23;37.48
66801;BME280;53703;50.326;19.122;2023-04-22T00:24:52;98596.67;;;18.17;37.89
66801;BME280;53703;50.326;19.122;2023-04-22T00:27:46;98594.98;;;18.16;37.77
66801;BME280;53703;50.326;19.122;2023-04-22T00:30:39;98597.05;;;18.17;37.61
66801;BME280;53703;50.326;19.122;2023-04-22T00:33:33;98600.35;;;18.13;37.62
66801;BME280;53703;50.326;19.122;2023-04-22T00:36:27;98599.69;;;18.12;37.74
66801;BME280;53703;50.326;19.122;2023-04-22T00:39:21;98597.70;;;18.11;37.94
66801;BME280;53703;50.326;19.122;2023-04-22T00:42:16;98592.94;;;18.10;37.92
66801;BME280;53703;50.326;19.122;2023-04-22T00:45:15;98592.63;;;18.08;37.55
66801;BME280;53703;50.326;19.122;2023-04-22T00:48:10;98593.40;;;18.16;37.71
66801;BME280;53703;50.326;19.122;2023-04-22T00:51:04;98591.02;;;18.15;37.52
66801;BME280;53703;50.326;19.122;2023-04-22T00:53:58;98587.63;;;18.09;37.40
66801;BME280;53703;50.326;19.122;2023-04-22T00:56:53;98588.23;;;18.12;37.64
66801;BME280;53703;50.326;19.122;2023-04-22T00:59:48;98590.08;;;18.10;37.42
66801;BME280;53703;50.326;19.122;2023-04-22T01:02:43;98588.70;;;18.09;37.26
66801;BME280;53703;50.326;19.122;2023-04-22T01:05:37;98589.58;;;18.06;37.39
66801;BME280;53703;50.326;19.122;2023-04-22T01:08:31;98595.05;;;18.12;37.25
66801;BME280;53703;50.326;19.122;2023-04-22T01:11:25;98593.57;;;18.13;37.24
66801;BME280;53703;50.326;19.122;2023-04-22T01:14:20;98588.25;;;18.12;37.26
66801;BME280;53703;50.326;19.122;2023-04-22T01:17:14;98591.77;;;18.03;37.55
66801;BME280;53703;50.326;19.122;2023-04-22T01:20:12;98595.98;;;18.06;37.30
66801;BME280;53703;50.326;19.122;2023-04-22T01:26:07;98593.72;;;18.02;37.23
66801;BME280;53703;50.326;19.122;2023-04-22T01:29:02;98588.79;;;18.04;37.01
66801;BME280;53703;50.326;19.122;2023-04-22T01:31:56;98590.95;;;18.02;37.44
66801;BME280;53703;50.326;19.122;2023-04-22T01:34:51;98589.58;;;18.01;37.45
66801;BME280;53703;50.326;19.122;2023-04-22T01:37:44;98584.80;;;18.04;37.23
66801;BME280;53703;50.326;19.122;2023-04-22T01:40:39;98583.61;;;17.99;37.62
66801;BME280;53703;50.326;19.122;2023-04-22T01:43:33;98585.95;;;17.95;37.50
66801;BME280;53703;50.326;19.122;2023-04-22T01:46:27;98588.10;;;17.96;37.47
66801;BME280;53703;50.326;19.122;2023-04-22T01:49:21;98592.70;;;17.97;37.40
66801;BME280;53703;50.326;19.122;2023-04-22T01:52:16;98589.59;;;17.88;37.71
66801;BME280;53703;50.326;19.122;2023-04-22T01:55:11;98592.88;;;17.84;37.34
66801;BME280;53703;50.326;19.122;2023-04-22T01:58:05;98594.91;;;17.89;37.43
66801;BME280;53703;50.326;19.122;2023-04-22T02:00:59;98593.08;;;17.80;37.80
66801;BME280;53703;50.326;19.122;2023-04-22T02:03:53;98591.69;;;17.84;37.72
66801;BME280;53703;50.326;19.122;2023-04-22T02:06:47;98587.52;;;17.78;37.58
66801;BME280;53703;50.326;19.122;2023-04-22T02:09:40;98585.65;;;17.79;37.65
66801;BME280;53703;50.326;19.122;2023-04-22T02:12:34;98584.48;;;17.77;37.59
66801;BME280;53703;50.326;19.122;2023-04-22T02:15:28;98586.05;;;17.77;37.42
66801;BME280;53703;50.326;19.122;2023-04-22T02:18:22;98583.77;;;17.79;37.48
66801;BME280;53703;50.326;19.122;2023-04-22T02:21:17;98581.61;;;17.82;37.19
66801;BME280;53703;50.326;19.122;2023-04-22T02:24:11;98583.80;;;17.89;37.08
66801;BME280;53703;50.326;19.122;2023-04-22T02:27:04;98581.85;;;17.90;37.00
66801;BME280;53703;50.326;19.122;2023-04-22T02:30:01;98582.96;;;17.87;36.90
66801;BME280;53703;50.326;19.122;2023-04-22T02:32:55;98580.45;;;17.88;36.78
66801;BME280;53703;50.326;19.122;2023-04-22T02:35:49;98581.18;;;17.80;37.01
66801;BME280;53703;50.326;19.122;2023-04-22T02:38:42;98582.77;;;17.87;36.88
66801;BME280;53703;50.326;19.122;2023-04-22T02:41:36;98578.35;;;17.95;36.60
66801;BME280;53703;50.326;19.122;2023-04-22T02:44:30;98578.23;;;17.90;36.72
66801;BME280;53703;50.326;19.122;2023-04-22T02:47:23;98578.88;;;17.83;36.82
66801;BME280;53703;50.326;19.122;2023-04-22T02:50:17;98582.59;;;17.74;36.99
66801;BME280;53703;50.326;19.122;2023-04-22T02:53:12;98580.67;;;17.76;37.01
66801;BME280;53703;50.326;19.122;2023-04-22T02:56:06;98581.23;;;17.74;37.21
66801;BME280;53703;50.326;19.122;2023-04-22T02:59:01;98581.77;;;17.68;37.09
66801;BME280;53703;50.326;19.122;2023-04-22T03:01:54;98581.40;;;17.83;36.97
66801;BME280;53703;50.326;19.122;2023-04-22T03:04:48;98582.98;;;17.91;36.55
66801;BME280;53703;50.326;19.122;2023-04-22T03:07:43;98586.16;;;17.92;36.44
66801;BME280;53703;50.326;19.122;2023-04-22T03:10:38;98585.41;;;17.76;36.93
66801;BME280;53703;50.326;19.122;2023-04-22T03:13:32;98584.92;;;17.79;36.72
66801;BME280;53703;50.326;19.122;2023-04-22T03:16:26;98582.79;;;17.65;37.00
66801;BME280;53703;50.326;19.122;2023-04-22T03:19:20;98588.88;;;17.66;37.26
66801;BME280;53703;50.326;19.122;2023-04-22T03:22:14;98587.50;;;17.62;37.20
66801;BME280;53703;50.326;19.122;2023-04-22T03:25:11;98587.73;;;17.62;37.09
66801;BME280;53703;50.326;19.122;2023-04-22T03:28:05;98586.19;;;17.57;37.20
66801;BME280;53703;50.326;19.122;2023-04-22T03:30:58;98585.95;;;17.65;36.91
66801;BME280;53703;50.326;19.122;2023-04-22T03:33:52;98582.14;;;17.59;37.05
66801;BME280;53703;50.326;19.122;2023-04-22T03:36:46;98582.45;;;17.56;37.13
66801;BME280;53703;50.326;19.122;2023-04-22T03:39:40;98583.34;;;17.57;37.16
66801;BME280;53703;50.326;19.122;2023-04-22T03:42:34;98582.73;;;17.58;37.16
66801;BME280;53703;50.326;19.122;2023-04-22T03:45:28;98586.42;;;17.63;36.91
66801;BME280;53703;50.326;19.122;2023-04-22T03:48:22;98588.41;;;17.79;36.61
66801;BME280;53703;50.326;19.122;2023-04-22T03:51:18;98584.59;;;17.78;36.94
66801;BME280;53703;50.326;19.122;2023-04-22T03:54:11;98588.98;;;17.75;37.13
66801;BME280;53703;50.326;19.122;2023-04-22T03:57:06;98589.36;;;17.61;37.64
66801;BME280;53703;50.326;19.122;2023-04-22T03:59:59;98594.13;;;17.84;36.77
66801;BME280;53703;50.326;19.122;2023-04-22T04:02:54;98597.29;;;17.87;36.60
66801;BME280;53703;50.326;19.122;2023-04-22T04:05:48;98602.30;;;17.82;36.58
66801;BME280;53703;50.326;19.122;2023-04-22T04:08:42;98599.63;;;17.72;36.57
66801;BME280;53703;50.326;19.122;2023-04-22T04:11:36;98603.16;;;17.74;36.65
66801;BME280;53703;50.326;19.122;2023-04-22T04:14:29;98603.79;;;17.66;36.66
66801;BME280;53703;50.326;19.122;2023-04-22T04:17:23;98603.97;;;17.72;36.69
66801;BME280;53703;50.326;19.122;2023-04-22T04:20:18;98602.72;;;17.68;36.68
66801;BME280;53703;50.326;19.122;2023-04-22T04:23:12;98597.33;;;17.72;36.57
66801;BME280;53703;50.326;19.122;2023-04-22T04:26:06;98595.58;;;17.66;36.79
66801;BME280;53703;50.326;19.122;2023-04-22T04:28:59;98594.15;;;17.63;36.84
66801;BME280;53703;50.326;19.122;2023-04-22T04:31:54;98589.92;;;17.64;36.72
66801;BME280;53703;50.326;19.122;2023-04-22T04:34:49;98594.05;;;17.78;36.69
66801;BME280;53703;50.326;19.122;2023-04-22T04:37:46;98598.45;;;17.75;36.62
66801;BME280;53703;50.326;19.122;2023-04-22T04:40:39;98596.81;;;17.65;36.96
66801;BME280;53703;50.326;19.122;2023-04-22T04:43:36;98600.30;;;17.41;37.60
66801;BME280;53703;50.326;19.122;2023-04-22T04:46:30;98600.70;;;17.39;37.61
66801;BME280;53703;50.326;19.122;2023-04-22T04:49:27;98605.86;;;17.38;37.79
66801;BME280;53703;50.326;19.122;2023-04-22T04:52:22;98610.96;;;17.50;37.64
66801;BME280;53703;50.326;19.122;2023-04-22T04:55:16;98613.33;;;17.40;38.01
66801;BME280;53703;50.326;19.122;2023-04-22T04:58:10;98609.25;;;17.45;37.94
66801;BME280;53703;50.326;19.122;2023-04-22T05:01:04;98609.98;;;17.52;37.97
66801;BME280;53703;50.326;19.122;2023-04-22T05:03:58;98612.12;;;17.57;37.94
66801;BME280;53703;50.326;19.122;2023-04-22T05:06:52;98609.30;;;17.58;37.92
66801;BME280;53703;50.326;19.122;2023-04-22T05:09:46;98604.54;;;17.55;38.02
66801;BME280;53703;50.326;19.122;2023-04-22T05:12:39;98603.21;;;17.63;38.01
66801;BME280;53703;50.326;19.122;2023-04-22T05:15:35;98603.98;;;17.78;37.99
66801;BME280;53703;50.326;19.122;2023-04-22T05:18:29;98604.20;;;17.69;38.16
66801;BME280;53703;50.326;19.122;2023-04-22T05:21:23;98604.19;;;17.72;38.06
66801;BME280;53703;50.326;19.122;2023-04-22T05:24:16;98605.14;;;17.61;38.33
66801;BME280;53703;50.326;19.122;2023-04-22T05:27:10;98604.20;;;17.61;38.24
66801;BME280;53703;50.326;19.122;2023-04-22T05:30:06;98606.74;;;17.52;38.45
66801;BME280;53703;50.326;19.122;2023-04-22T05:33:00;98605.36;;;17.56;38.42
66801;BME280;53703;50.326;19.122;2023-04-22T05:35:54;98605.28;;;17.61;38.54
66801;BME280;53703;50.326;19.122;2023-04-22T05:38:48;98606.16;;;17.80;38.09
66801;BME280;53703;50.326;19.122;2023-04-22T05:41:42;98607.50;;;17.80;38.15
66801;BME280;53703;50.326;19.122;2023-04-22T05:44:38;98608.27;;;17.84;38.49
66801;BME280;53703;50.326;19.122;2023-04-22T05:47:32;98608.91;;;17.77;38.37
66801;BME280;53703;50.326;19.122;2023-04-22T05:50:28;98609.99;;;17.84;38.19
66801;BME280;53703;50.326;19.122;2023-04-22T05:53:22;98608.15;;;17.67;38.45
66801;BME280;53703;50.326;19.122;2023-04-22T05:56:15;98612.42;;;17.65;38.52
66801;BME280;53703;50.326;19.122;2023-04-22T05:59:09;98611.23;;;17.75;38.53
66801;BME280;53703;50.326;19.122;2023-04-22T06:02:03;98611.34;;;17.82;38.40
66801;BME280;53703;50.326;19.122;2023-04-22T06:04:57;98609.54;;;17.66;38.79
66801;BME280;53703;50.326;19.122;2023-04-22T06:07:51;98607.88;;;17.63;38.90
66801;BME280;53703;50.326;19.122;2023-04-22T06:10:45;98614.53;;;17.77;38.65
66801;BME280;53703;50.326;19.122;2023-04-22T06:13:39;98614.05;;;17.69;38.68
66801;BME280;53703;50.326;19.122;2023-04-22T06:16:33;98612.31;;;17.66;38.88
66801;BME280;53703;50.326;19.122;2023-04-22T06:19:27;98615.35;;;17.78;38.88
66801;BME280;53703;50.326;19.122;2023-04-22T06:22:21;98616.61;;;17.95;38.95
66801;BME280;53703;50.326;19.122;2023-04-22T06:25:15;98614.78;;;17.86;38.93
66801;BME280;53703;50.326;19.122;2023-04-22T06:28:08;98614.05;;;17.80;38.91
66801;BME280;53703;50.326;19.122;2023-04-22T06:31:03;98610.17;;;17.72;39.06
66801;BME280;53703;50.326;19.122;2023-04-22T06:33:52;98612.08;;;17.79;38.90
66801;BME280;53703;50.326;19.122;2023-04-22T06:36:47;98613.45;;;17.83;38.66
66801;BME280;53703;50.326;19.122;2023-04-22T06:39:41;98609.78;;;17.93;38.53
66801;BME280;53703;50.326;19.122;2023-04-22T06:42:35;98611.20;;;18.09;38.05
66801;BME280;53703;50.326;19.122;2023-04-22T06:45:29;98611.32;;;17.81;37.90
66801;BME280;53703;50.326;19.122;2023-04-22T06:48:22;98611.52;;;17.24;36.75
66801;BME280;53703;50.326;19.122;2023-04-22T06:51:16;98610.09;;;17.19;36.69
66801;BME280;53703;50.326;19.122;2023-04-22T06:54:10;98609.95;;;17.06;36.86
66801;BME280;53703;50.326;19.122;2023-04-22T06:57:04;98608.72;;;16.99;39.96
66801;BME280;53703;50.326;19.122;2023-04-22T06:59:59;98608.01;;;17.04;47.76
66801;BME280;53703;50.326;19.122;2023-04-22T07:02:53;98605.16;;;16.63;45.81
66801;BME280;53703;50.326;19.122;2023-04-22T07:05:47;98605.41;;;16.59;42.80
66801;BME280;53703;50.326;19.122;2023-04-22T07:08:41;98605.60;;;16.59;39.33
66801;BME280;53703;50.326;19.122;2023-04-22T07:11:35;98603.18;;;16.51;38.18
66801;BME280;53703;50.326;19.122;2023-04-22T07:14:29;98608.88;;;17.09;38.28
66801;BME280;53703;50.326;19.122;2023-04-22T07:17:24;98605.27;;;17.55;37.77
66801;BME280;53703;50.326;19.122;2023-04-22T07:20:18;98605.55;;;17.69;37.65
66801;BME280;53703;50.326;19.122;2023-04-22T07:23:12;98610.75;;;17.77;37.28
66801;BME280;53703;50.326;19.122;2023-04-22T07:26:06;98607.67;;;17.72;38.04
66801;BME280;53703;50.326;19.122;2023-04-22T07:29:00;98609.11;;;17.89;37.66
66801;BME280;53703;50.326;19.122;2023-04-22T07:31:54;98606.20;;;18.08;37.66
66801;BME280;53703;50.326;19.122;2023-04-22T07:34:48;98605.15;;;18.05;37.49
66801;BME280;53703;50.326;19.122;2023-04-22T07:37:41;98608.00;;;18.13;38.11
66801;BME280;53703;50.326;19.122;2023-04-22T07:40:26;98607.56;;;18.15;38.63
66801;BME280;53703;50.326;19.122;2023-04-22T07:43:19;98604.65;;;18.26;38.40
66801;BME280;53703;50.326;19.122;2023-04-22T07:46:13;98611.55;;;18.27;37.80
66801;BME280;53703;50.326;19.122;2023-04-22T07:49:07;98605.58;;;18.19;37.18
66801;BME280;53703;50.326;19.122;2023-04-22T07:52:01;98605.88;;;18.19;37.51
66801;BME280;53703;50.326;19.122;2023-04-22T07:54:55;98610.66;;;18.26;37.14
66801;BME280;53703;50.326;19.122;2023-04-22T07:57:49;98607.30;;;18.34;36.88
66801;BME280;53703;50.326;19.122;2023-04-22T08:00:43;98611.48;;;18.31;37.09
66801;BME280;53703;50.326;19.122;2023-04-22T08:03:38;98605.44;;;18.35;36.05
66801;BME280;53703;50.326;19.122;2023-04-22T08:06:32;98601.66;;;18.33;35.96
66801;BME280;53703;50.326;19.122;2023-04-22T08:09:26;98599.80;;;18.36;35.77
66801;BME280;53703;50.326;19.122;2023-04-22T08:12:21;98600.73;;;18.39;34.97
66801;BME280;53703;50.326;19.122;2023-04-22T08:15:17;98596.90;;;18.28;34.97
66801;BME280;53703;50.326;19.122;2023-04-22T08:18:11;98598.04;;;18.36;34.62
66801;BME280;53703;50.326;19.122;2023-04-22T08:21:05;98599.06;;;18.42;35.06
66801;BME280;53703;50.326;19.122;2023-04-22T08:23:44;98594.71;;;18.50;36.16
66801;BME280;53703;50.326;19.122;2023-04-22T08:26:39;98594.97;;;18.39;36.55
66801;BME280;53703;50.326;19.122;2023-04-22T08:29:33;98597.83;;;18.42;35.89
66801;BME280;53703;50.326;19.122;2023-04-22T08:32:27;98600.06;;;18.29;36.10
66801;BME280;53703;50.326;19.122;2023-04-22T08:35:21;98599.19;;;18.03;36.27
66801;BME280;53703;50.326;19.122;2023-04-22T08:38:15;98596.84;;;18.26;35.76
66801;BME280;53703;50.326;19.122;2023-04-22T08:41:10;98593.88;;;18.28;35.86
66801;BME280;53703;50.326;19.122;2023-04-22T08:44:05;98591.36;;;18.40;36.02
66801;BME280;53703;50.326;19.122;2023-04-22T08:47:00;98592.58;;;18.01;36.77
66801;BME280;53703;50.326;19.122;2023-04-22T08:49:58;98590.66;;;18.08;35.88
66801;BME280;53703;50.326;19.122;2023-04-22T08:52:54;98586.33;;;18.20;35.83
66801;BME280;53703;50.326;19.122;2023-04-22T08:55:49;98589.11;;;18.09;36.18
66801;BME280;53703;50.326;19.122;2023-04-22T08:58:44;98587.98;;;18.29;35.90
66801;BME280;53703;50.326;19.122;2023-04-22T09:01:39;98579.77;;;18.46;35.82
66801;BME280;53703;50.326;19.122;2023-04-22T09:04:34;98578.34;;;18.40;36.62
66801;BME280;53703;50.326;19.122;2023-04-22T09:07:31;98575.95;;;18.33;36.71
66801;BME280;53703;50.326;19.122;2023-04-22T09:10:25;98574.77;;;18.42;34.69
66801;BME280;53703;50.326;19.122;2023-04-22T09:13:19;98570.30;;;18.44;34.06
66801;BME280;53703;50.326;19.122;2023-04-22T09:16:14;98571.71;;;18.40;34.26
66801;BME280;53703;50.326;19.122;2023-04-22T09:19:15;98568.26;;;18.47;35.35
66801;BME280;53703;50.326;19.122;2023-04-22T09:22:11;98569.34;;;18.62;37.61
66801;BME280;53703;50.326;19.122;2023-04-22T09:25:15;98568.64;;;18.52;36.55
66801;BME280;53703;50.326;19.122;2023-04-22T09:28:16;98567.75;;;18.49;37.40
66801;BME280;53703;50.326;19.122;2023-04-22T09:31:15;98567.86;;;18.52;34.92
66801;BME280;53703;50.326;19.122;2023-04-22T09:34:09;98566.45;;;18.33;37.12
66801;BME280;53703;50.326;19.122;2023-04-22T09:37:03;98561.00;;;18.57;36.24
66801;BME280;53703;50.326;19.122;2023-04-22T09:39:58;98563.52;;;18.31;37.19
66801;BME280;53703;50.326;19.122;2023-04-22T09:42:54;98553.20;;;18.24;36.24
66801;BME280;53703;50.326;19.122;2023-04-22T09:45:48;98548.31;;;18.18;35.64
66801;BME280;53703;50.326;19.122;2023-04-22T09:48:46;98549.38;;;18.34;35.60
66801;BME280;53703;50.326;19.122;2023-04-22T09:51:43;98543.48;;;18.41;35.87
66801;BME280;53703;50.326;19.122;2023-04-22T09:54:39;98540.00;;;18.11;36.45
66801;BME280;53703;50.326;19.122;2023-04-22T09:57:43;98535.66;;;18.29;35.95
66801;BME280;53703;50.326;19.122;2023-04-22T10:00:41;98528.38;;;18.02;36.36
66801;BME280;53703;50.326;19.122;2023-04-22T10:03:36;98530.98;;;18.25;35.83
66801;BME280;53703;50.326;19.122;2023-04-22T10:06:30;98528.20;;;18.42;35.75
66801;BME280;53703;50.326;19.122;2023-04-22T10:09:25;98527.20;;;18.47;35.44
66801;BME280;53703;50.326;19.122;2023-04-22T10:12:30;98520.30;;;18.49;36.33
66801;BME280;53703;50.326;19.122;2023-04-22T10:15:28;98520.83;;;18.41;35.82
66801;BME280;53703;50.326;19.122;2023-04-22T10:18:26;98518.71;;;18.45;36.24
66801;BME280;53703;50.326;19.122;2023-04-22T10:21:22;98516.92;;;18.53;36.24
66801;BME280;53703;50.326;19.122;2023-04-22T10:24:19;98516.33;;;18.47;36.64
66801;BME280;53703;50.326;19.122;2023-04-22T10:27:13;98512.52;;;18.57;36.39
66801;BME280;53703;50.326;19.122;2023-04-22T10:30:35;98513.36;;;18.55;36.02
66801;BME280;53703;50.326;19.122;2023-04-22T10:33:44;98510.33;;;18.57;35.96
66801;BME280;53703;50.326;19.122;2023-04-22T10:37:04;98510.08;;;18.64;36.08
66801;BME280;53703;50.326;19.122;2023-04-22T10:40:11;98506.69;;;18.57;36.11
66801;BME280;53703;50.326;19.122;2023-04-22T10:43:10;98499.84;;;18.57;36.71
66801;BME280;53703;50.326;19.122;2023-04-22T10:46:59;98502.15;;;18.55;35.43
66801;BME280;53703;50.326;19.122;2023-04-22T10:50:15;98498.89;;;18.57;35.29
66801;BME280;53703;50.326;19.122;2023-04-22T10:53:39;98496.59;;;18.61;34.17
66801;BME280;53703;50.326;19.122;2023-04-22T10:56:34;98494.63;;;18.68;34.69
66801;BME280;53703;50.326;19.122;2023-04-22T10:59:47;98495.91;;;18.62;34.61
66801;BME280;53703;50.326;19.122;2023-04-22T11:02:44;98490.98;;;18.34;36.62
66801;BME280;53703;50.326;19.122;2023-04-22T11:05:40;98485.29;;;18.50;36.00
66801;BME280;53703;50.326;19.122;2023-04-22T11:08:34;98484.95;;;18.56;35.77
66801;BME280;53703;50.326;19.122;2023-04-22T11:11:27;98480.73;;;18.61;35.12
66801;BME280;53703;50.326;19.122;2023-04-22T11:14:21;98478.67;;;18.57;35.42
66801;BME280;53703;50.326;19.122;2023-04-22T11:17:15;98472.93;;;18.75;35.89
66801;BME280;53703;50.326;19.122;2023-04-22T11:20:12;98474.88;;;18.68;35.70
66801;BME280;53703;50.326;19.122;2023-04-22T11:23:13;98467.73;;;18.87;35.60
66801;BME280;53703;50.326;19.122;2023-04-22T11:26:09;98470.04;;;18.84;35.57
66801;BME280;53703;50.326;19.122;2023-04-22T11:29:02;98465.07;;;18.41;36.27
66801;BME280;53703;50.326;19.122;2023-04-22T11:31:57;98460.77;;;18.66;36.11
66801;BME280;53703;50.326;19.122;2023-04-22T11:34:55;98460.20;;;18.85;35.92
66801;BME280;53703;50.326;19.122;2023-04-22T11:37:51;98456.38;;;18.77;36.14
66801;BME280;53703;50.326;19.122;2023-04-22T11:40:45;98462.05;;;18.80;35.74
66801;BME280;53703;50.326;19.122;2023-04-22T11:43:48;98456.15;;;18.81;35.64
66801;BME280;53703;50.326;19.122;2023-04-22T11:46:45;98457.84;;;18.79;35.45
66801;BME280;53703;50.326;19.122;2023-04-22T11:49:40;98454.29;;;18.71;35.74
66801;BME280;53703;50.326;19.122;2023-04-22T11:52:49;98451.85;;;18.69;35.90
66801;BME280;53703;50.326;19.122;2023-04-22T11:55:44;98449.58;;;18.70;35.88
66801;BME280;53703;50.326;19.122;2023-04-22T11:58:40;98447.31;;;18.64;36.08
66801;BME280;53703;50.326;19.122;2023-04-22T12:01:34;98443.99;;;18.57;36.27
66801;BME280;53703;50.326;19.122;2023-04-22T12:04:28;98443.52;;;18.57;36.02
66801;BME280;53703;50.326;19.122;2023-04-22T12:07:22;98446.52;;;18.78;35.35
66801;BME280;53703;50.326;19.122;2023-04-22T12:10:16;98442.23;;;18.80;35.24
66801;BME280;53703;50.326;19.122;2023-04-22T12:13:16;98441.36;;;18.60;35.74
66801;BME280;53703;50.326;19.122;2023-04-22T12:16:14;98436.34;;;18.75;35.23
66801;BME280;53703;50.326;19.122;2023-04-22T12:19:11;98437.94;;;18.68;34.46
66801;BME280;53703;50.326;19.122;2023-04-22T12:22:13;98434.23;;;18.72;35.04
66801;BME280;53703;50.326;19.122;2023-04-22T12:25:28;98431.95;;;18.66;35.39
66801;BME280;53703;50.326;19.122;2023-04-22T12:28:25;98431.92;;;18.61;35.33
66801;BME280;53703;50.326;19.122;2023-04-22T12:31:21;98431.77;;;18.78;34.57
66801;BME280;53703;50.326;19.122;2023-04-22T12:34:15;98431.75;;;18.78;33.62
66801;BME280;53703;50.326;19.122;2023-04-22T12:37:09;98432.36;;;18.77;34.29
66801;BME280;53703;50.326;19.122;2023-04-22T12:40:03;98429.25;;;18.75;34.04
66801;BME280;53703;50.326;19.122;2023-04-22T12:42:58;98425.45;;;18.82;34.51
66801;BME280;53703;50.326;19.122;2023-04-22T12:45:52;98425.15;;;18.82;34.34
66801;BME280;53703;50.326;19.122;2023-04-22T12:48:46;98421.23;;;18.77;35.02
66801;BME280;53703;50.326;19.122;2023-04-22T12:51:40;98413.11;;;18.40;35.58
66801;BME280;53703;50.326;19.122;2023-04-22T12:54:34;98415.38;;;18.63;34.36
66801;BME280;53703;50.326;19.122;2023-04-22T12:57:28;98410.77;;;18.67;34.22
66801;BME280;53703;50.326;19.122;2023-04-22T13:00:22;98412.00;;;18.67;33.96
66801;BME280;53703;50.326;19.122;2023-04-22T13:03:16;98406.04;;;18.65;34.80
66801;BME280;53703;50.326;19.122;2023-04-22T13:06:12;98403.01;;;18.56;34.91
66801;BME280;53703;50.326;19.122;2023-04-22T13:09:05;98405.12;;;18.63;34.66
66801;BME280;53703;50.326;19.122;2023-04-22T13:11:59;98399.92;;;18.50;34.95
66801;BME280;53703;50.326;19.122;2023-04-22T13:14:54;98399.42;;;18.45;35.04
66801;BME280;53703;50.326;19.122;2023-04-22T13:17:48;98400.55;;;18.53;34.43
66801;BME280;53703;50.326;19.122;2023-04-22T13:20:43;98390.85;;;18.60;34.43
66801;BME280;53703;50.326;19.122;2023-04-22T13:23:37;98396.06;;;18.40;35.34
66801;BME280;53703;50.326;19.122;2023-04-22T13:26:31;98391.17;;;18.50;35.31
66801;BME280;53703;50.326;19.122;2023-04-22T13:29:25;98392.98;;;18.39;35.42
66801;BME280;53703;50.326;19.122;2023-04-22T13:32:19;98391.23;;;18.64;34.96
66801;BME280;53703;50.326;19.122;2023-04-22T13:35:13;98386.72;;;18.77;34.88
66801;BME280;53703;50.326;19.122;2023-04-22T13:38:09;98388.80;;;18.75;35.25
66801;BME280;53703;50.326;19.122;2023-04-22T13:41:03;98390.66;;;18.76;35.69
66801;BME280;53703;50.326;19.122;2023-04-22T13:43:59;98390.70;;;18.75;34.74
66801;BME280;53703;50.326;19.122;2023-04-22T13:46:55;98383.03;;;18.78;37.59
66801;BME280;53703;50.326;19.122;2023-04-22T13:49:49;98379.98;;;18.72;36.39
66801;BME280;53703;50.326;19.122;2023-04-22T13:52:42;98373.21;;;18.70;35.47
66801;BME280;53703;50.326;19.122;2023-04-22T13:55:37;98373.42;;;18.69;37.70
66801;BME280;53703;50.326;19.122;2023-04-22T13:58:32;98366.61;;;18.57;37.50
66801;BME280;53703;50.326;19.122;2023-04-22T14:01:27;98364.45;;;18.52;35.60
66801;BME280;53703;50.326;19.122;2023-04-22T14:04:21;98369.13;;;18.56;35.23
66801;BME280;53703;50.326;19.122;2023-04-22T14:07:15;98368.63;;;18.74;35.03
66801;BME280;53703;50.326;19.122;2023-04-22T14:10:10;98366.07;;;18.76;34.69
66801;BME280;53703;50.326;19.122;2023-04-22T14:13:05;98363.95;;;18.72;35.74
66801;BME280;53703;50.326;19.122;2023-04-22T14:16:00;98365.48;;;18.86;35.49
66801;BME280;53703;50.326;19.122;2023-04-22T14:18:55;98362.70;;;18.81;35.53
66801;BME280;53703;50.326;19.122;2023-04-22T14:21:49;98362.36;;;18.76;34.92
66801;BME280;53703;50.326;19.122;2023-04-22T14:24:44;98359.14;;;18.88;35.47
66801;BME280;53703;50.326;19.122;2023-04-22T14:27:38;98365.00;;;18.92;35.61
66801;BME280;53703;50.326;19.122;2023-04-22T14:30:32;98357.29;;;18.83;36.27
66801;BME280;53703;50.326;19.122;2023-04-22T14:33:26;98352.81;;;18.73;36.04
66801;BME280;53703;50.326;19.122;2023-04-22T14:36:21;98350.34;;;18.75;34.83
66801;BME280;53703;50.326;19.122;2023-04-22T14:39:14;98356.18;;;18.82;34.71
66801;BME280;53703;50.326;19.122;2023-04-22T14:42:08;98351.13;;;18.94;34.46
66801;BME280;53703;50.326;19.122;2023-04-22T14:45:03;98347.30;;;18.92;33.89
66801;BME280;53703;50.326;19.122;2023-04-22T14:47:57;98343.27;;;19.03;32.42
66801;BME280;53703;50.326;19.122;2023-04-22T14:50:51;98347.66;;;18.87;32.74
66801;BME280;53703;50.326;19.122;2023-04-22T14:53:46;98344.17;;;18.86;32.97
66801;BME280;53703;50.326;19.122;2023-04-22T14:56:40;98343.63;;;18.94;33.24
66801;BME280;53703;50.326;19.122;2023-04-22T14:59:34;98344.95;;;18.93;34.82
66801;BME280;53703;50.326;19.122;2023-04-22T15:02:27;98343.75;;;19.04;35.53
66801;BME280;53703;50.326;19.122;2023-04-22T15:05:22;98343.94;;;18.86;35.37
66801;BME280;53703;50.326;19.122;2023-04-22T15:08:16;98344.45;;;18.84;34.64
66801;BME280;53703;50.326;19.122;2023-04-22T15:11:10;98345.95;;;18.84;34.73
66801;BME280;53703;50.326;19.122;2023-04-22T15:13:53;98345.55;;;18.83;33.55
66801;BME280;53703;50.326;19.122;2023-04-22T15:16:47;98340.23;;;18.82;32.47
66801;BME280;53703;50.326;19.122;2023-04-22T15:19:41;98339.16;;;18.88;31.65